createdAt,value
2023-04-24T00:00:16.918Z,1.20
2023-04-24T00:03:23.053Z,1.00
2023-04-24T00:06:24.986Z,0.70
2023-04-24T00:09:27.927Z,1.13
2023-04-24T00:12:29.791Z,0.70
2023-04-24T00:15:32.324Z,0.67
2023-04-24T00:18:34.249Z,0.90
2023-04-24T00:21:36.270Z,0.53
2023-04-24T00:24:38.213Z,0.70
2023-04-24T00:27:40.267Z,1.03
2023-04-24T00:30:42.147Z,1.20
2023-04-24T00:33:45.124Z,0.70
2023-04-24T00:36:47.625Z,0.60
2023-04-24T00:39:49.853Z,0.60
2023-04-24T00:42:51.947Z,0.50
2023-04-24T00:45:54.388Z,0.30
2023-04-24T00:48:57.626Z,0.30
2023-04-24T00:52:01.054Z,0.30
2023-04-24T00:55:03.024Z,0.40
2023-04-24T00:58:06.277Z,0.30
2023-04-24T01:01:08.452Z,0.30
2023-04-24T01:04:11.780Z,0.40
2023-04-24T01:07:13.814Z,0.37
2023-04-24T01:10:17.360Z,0.30
2023-04-24T01:13:22.649Z,0.40
2023-04-24T01:16:24.752Z,0.50
2023-04-24T01:19:26.779Z,0.40
2023-04-24T01:22:28.773Z,0.50
2023-04-24T01:25:31.002Z,0.60
2023-04-24T01:28:33.108Z,0.53
2023-04-24T01:31:35.905Z,0.50
2023-04-24T01:34:38.607Z,0.30
2023-04-24T01:37:40.504Z,0.30
2023-04-24T01:40:43.321Z,0.40
2023-04-24T01:43:45.315Z,1.77
2023-04-24T01:46:47.521Z,0.50
2023-04-24T01:49:51.457Z,0.30
2023-04-24T01:52:54.186Z,0.40
2023-04-24T01:55:56.051Z,0.50
2023-04-24T01:58:59.584Z,0.40
2023-04-24T02:02:01.662Z,0.30
2023-04-24T02:05:04.321Z,0.30
2023-04-24T02:08:06.266Z,0.30
2023-04-24T02:11:10.087Z,0.53
2023-04-24T02:14:11.976Z,0.63
2023-04-24T02:17:15.807Z,0.50
2023-04-24T02:20:18.825Z,0.47
2023-04-24T02:23:21.318Z,0.30
2023-04-24T02:26:23.262Z,0.50
2023-04-24T02:29:25.869Z,0.70
2023-04-24T02:32:27.742Z,0.60
2023-04-24T02:35:29.655Z,0.50
2023-04-24T02:38:31.565Z,0.50
2023-04-24T02:41:33.981Z,0.30
2023-04-24T02:44:36.554Z,0.40
2023-04-24T02:47:39.347Z,0.40
2023-04-24T02:50:41.640Z,0.30
2023-04-24T02:53:43.758Z,0.40
2023-04-24T02:56:45.662Z,0.30
2023-04-24T02:59:47.670Z,0.40
2023-04-24T03:02:50.900Z,0.40
2023-04-24T03:05:54.332Z,0.40
2023-04-24T03:08:56.667Z,0.40
2023-04-24T03:11:59.649Z,0.83
2023-04-24T03:15:01.707Z,1.00
2023-04-24T03:18:04.394Z,0.50
2023-04-24T03:21:06.497Z,0.43
2023-04-24T03:24:10.092Z,0.50
2023-04-24T03:27:12.134Z,0.57
2023-04-24T03:30:14.219Z,0.50
2023-04-24T03:33:16.151Z,0.53
2023-04-24T03:36:19.113Z,0.40
2023-04-24T03:39:21.067Z,0.60
2023-04-24T03:42:23.461Z,0.37
2023-04-24T03:45:25.627Z,0.70
2023-04-24T03:48:28.109Z,0.40
2023-04-24T03:51:31.584Z,0.30
2023-04-24T03:54:33.584Z,0.60
2023-04-24T03:57:35.551Z,0.20
2023-04-24T04:00:38.647Z,0.40
2023-04-24T04:03:41.344Z,0.40
2023-04-24T04:06:45.369Z,1.23
2023-04-24T04:09:47.330Z,0.40
2023-04-24T04:12:49.286Z,0.40
2023-04-24T04:15:51.677Z,0.40
2023-04-24T04:18:53.564Z,0.40
2023-04-24T04:21:57.424Z,2.77
2023-04-24T04:24:59.311Z,0.60
2023-04-24T04:28:01.691Z,0.37
2023-04-24T04:31:03.784Z,0.60
2023-04-24T04:34:05.721Z,0.50
2023-04-24T04:37:07.642Z,0.40
2023-04-24T04:40:13.293Z,0.50
2023-04-24T04:43:16.472Z,0.50
2023-04-24T04:46:18.766Z,0.60
2023-04-24T04:49:22.762Z,0.47
2023-04-24T04:52:26.462Z,0.70
2023-04-24T04:55:28.838Z,0.70
2023-04-24T04:58:30.879Z,0.90
2023-04-24T05:01:32.719Z,0.50
2023-04-24T05:04:34.795Z,0.40
2023-04-24T05:07:36.944Z,0.80
2023-04-24T05:10:38.813Z,0.43
2023-04-24T05:13:41.364Z,0.50
2023-04-24T05:16:43.537Z,0.40
2023-04-24T05:19:46.669Z,0.53
2023-04-24T05:22:49.374Z,0.40
2023-04-24T05:25:51.281Z,0.50
2023-04-24T05:28:53.220Z,0.40
2023-04-24T05:31:55.228Z,0.50
2023-04-24T05:34:57.849Z,0.50
2023-04-24T05:37:59.720Z,0.30
2023-04-24T05:41:02.182Z,0.53
2023-04-24T05:44:03.968Z,0.30
2023-04-24T05:47:06.044Z,0.50
2023-04-24T05:50:08.390Z,0.50
2023-04-24T05:53:12.245Z,0.30
2023-04-24T05:56:14.201Z,0.40
2023-04-24T05:59:16.294Z,0.47
2023-04-24T06:02:18.716Z,0.30
2023-04-24T06:05:20.862Z,0.40
2023-04-24T06:08:22.997Z,0.40
2023-04-24T06:11:26.374Z,0.50
2023-04-24T06:14:28.196Z,0.43
2023-04-24T06:17:30.368Z,0.30
2023-04-24T06:20:32.208Z,0.30
2023-04-24T06:23:34.253Z,0.40
2023-04-24T06:26:36.859Z,0.20
2023-04-24T06:29:38.759Z,0.30
2023-04-24T06:32:41.735Z,0.30
2023-04-24T06:35:43.671Z,0.30
2023-04-24T06:38:45.651Z,0.70
2023-04-24T06:41:47.877Z,0.40
2023-04-24T06:44:49.750Z,0.27
2023-04-24T06:47:52.384Z,0.50
2023-04-24T06:50:54.230Z,0.40
2023-04-24T06:53:57.537Z,0.20
2023-04-24T06:57:01.997Z,0.30
2023-04-24T07:00:07.212Z,0.40
2023-04-24T07:03:09.194Z,0.30
2023-04-24T07:06:12.696Z,0.27
2023-04-24T07:09:19.679Z,0.30
2023-04-24T07:12:22.965Z,0.33
2023-04-24T07:15:24.884Z,0.40
2023-04-24T07:18:27.321Z,0.40
2023-04-24T07:21:29.323Z,0.40
2023-04-24T07:24:33.871Z,0.20
2023-04-24T07:27:37.457Z,0.30
2023-04-24T07:30:39.383Z,0.23
2023-04-24T07:33:41.259Z,0.40
2023-04-24T07:36:43.373Z,0.40
2023-04-24T07:39:45.836Z,0.30
2023-04-24T07:42:50.272Z,0.30
2023-04-24T07:45:52.705Z,0.30
2023-04-24T07:49:09.142Z,0.43
2023-04-24T07:52:13.886Z,0.20
2023-04-24T07:55:15.837Z,0.30
2023-04-24T07:58:17.733Z,0.30
2023-04-24T08:01:19.653Z,0.40
2023-04-24T08:04:21.831Z,0.30
2023-04-24T08:07:25.109Z,0.30
2023-04-24T08:10:27.336Z,0.60
2023-04-24T08:13:29.249Z,0.70
2023-04-24T08:16:31.288Z,0.30
2023-04-24T08:19:33.250Z,0.20
2023-04-24T08:22:35.117Z,0.30
2023-04-24T08:25:37.099Z,0.40
2023-04-24T08:28:39.898Z,0.37
2023-04-24T08:31:41.813Z,0.40
2023-04-24T08:34:43.716Z,0.20
2023-04-24T08:37:45.968Z,0.20
2023-04-24T08:40:50.946Z,0.30
2023-04-24T08:43:54.886Z,0.20
2023-04-24T08:46:56.784Z,0.50
2023-04-24T08:50:00.052Z,2.00
2023-04-24T08:53:04.475Z,0.50
2023-04-24T08:56:08.336Z,0.70
2023-04-24T08:59:10.299Z,0.37
2023-04-24T09:02:16.724Z,0.20
2023-04-24T09:05:20.376Z,0.20
2023-04-24T09:08:26.249Z,0.20
2023-04-24T09:11:28.467Z,0.20
2023-04-24T09:14:33.263Z,0.50
2023-04-24T09:17:36.808Z,0.57
2023-04-24T09:21:02.082Z,0.30
2023-04-24T09:24:07.262Z,0.30
2023-04-24T09:27:11.302Z,0.20
2023-04-24T09:30:14.372Z,0.30
2023-04-24T09:33:16.917Z,0.30
2023-04-24T09:36:19.226Z,0.80
2023-04-24T09:39:21.478Z,0.80
2023-04-24T09:42:26.981Z,0.80
2023-04-24T09:45:40.424Z,0.53
2023-04-24T09:48:42.414Z,0.50
2023-04-24T09:51:44.797Z,0.40
2023-04-24T09:54:54.383Z,0.30
2023-04-24T09:58:06.550Z,1.73
2023-04-24T10:01:08.491Z,0.40
2023-04-24T10:04:18.645Z,0.30
2023-04-24T10:07:20.699Z,0.40
2023-04-24T10:10:23.281Z,0.27
2023-04-24T10:13:25.188Z,0.20
2023-04-24T10:16:28.516Z,0.40
2023-04-24T10:19:31.249Z,0.50
2023-04-24T10:22:33.848Z,0.20
2023-04-24T10:25:36.856Z,0.20
2023-04-24T10:28:39.144Z,0.30
2023-04-24T10:31:41.805Z,0.40
2023-04-24T10:34:44.306Z,0.40
2023-04-24T10:37:57.060Z,1.20
2023-04-24T10:41:09.602Z,0.53
2023-04-24T10:44:15.330Z,0.40
2023-04-24T10:47:17.479Z,0.40
2023-04-24T10:50:19.934Z,0.63
2023-04-24T10:53:29.359Z,0.70
2023-04-24T10:56:31.261Z,0.40
2023-04-24T10:59:38.641Z,0.30
2023-04-24T11:02:44.995Z,0.30
2023-04-24T11:05:58.676Z,0.50
2023-04-24T11:09:14.289Z,0.30
2023-04-24T11:12:16.102Z,0.37
2023-04-24T11:15:20.994Z,0.40
2023-04-24T11:18:25.029Z,0.60
2023-04-24T11:21:27.575Z,0.63
2023-04-24T11:24:52.681Z,0.33
2023-04-24T11:28:05.809Z,0.30
2023-04-24T11:31:56.521Z,0.73
2023-04-24T11:35:01.881Z,0.60
2023-04-24T11:38:22.695Z,0.30
2023-04-24T11:41:27.126Z,0.47
2023-04-24T11:44:30.093Z,0.50
2023-04-24T11:47:34.996Z,0.43
2023-04-24T11:50:37.936Z,0.53
2023-04-24T11:53:39.847Z,0.60
2023-04-24T11:56:46.453Z,0.47
2023-04-24T11:59:48.659Z,0.63
2023-04-24T12:02:51.742Z,0.90
2023-04-24T12:05:53.877Z,0.80
2023-04-24T12:09:01.759Z,0.60
2023-04-24T12:12:07.685Z,0.60
2023-04-24T12:15:11.021Z,0.40
2023-04-24T12:18:14.566Z,0.50
2023-04-24T12:21:28.115Z,0.50
2023-04-24T12:24:32.137Z,0.60
2023-04-24T12:27:34.448Z,0.50
2023-04-24T12:30:49.745Z,0.50
2023-04-24T12:33:52.161Z,0.70
2023-04-24T12:36:54.283Z,0.50
2023-04-24T12:40:09.171Z,0.50
2023-04-24T12:43:19.688Z,0.50
2023-04-24T12:46:22.808Z,0.50
2023-04-24T12:49:24.922Z,0.50
2023-04-24T12:52:28.493Z,0.40
2023-04-24T12:55:30.350Z,0.60
2023-04-24T12:58:32.326Z,0.67
2023-04-24T13:01:34.347Z,0.53
2023-04-24T13:04:36.250Z,0.57
2023-04-24T13:07:38.243Z,0.53
2023-04-24T13:10:41.507Z,0.60
2023-04-24T13:13:43.549Z,0.50
2023-04-24T13:16:45.862Z,0.60
2023-04-24T13:19:47.910Z,0.60
2023-04-24T13:22:51.861Z,0.60
2023-04-24T13:25:58.664Z,0.80
2023-04-24T13:29:01.838Z,0.30
2023-04-24T13:32:04.090Z,0.60
2023-04-24T13:35:06.477Z,0.53
2023-04-24T13:38:10.884Z,0.60
2023-04-24T13:41:12.982Z,0.70
2023-04-24T13:44:15.802Z,0.80
2023-04-24T13:47:18.225Z,0.50
2023-04-24T13:50:21.553Z,0.50
2023-04-24T13:53:23.630Z,0.40
2023-04-24T13:56:25.709Z,0.40
2023-04-24T13:59:28.086Z,0.47
2023-04-24T14:02:30.041Z,0.50
2023-04-24T14:05:32.024Z,0.60
2023-04-24T14:08:34.061Z,0.50
2023-04-24T14:11:36.195Z,0.47
2023-04-24T14:14:38.104Z,0.50
2023-04-24T14:17:40.317Z,0.50
2023-04-24T14:20:42.217Z,0.63
2023-04-24T14:23:44.836Z,0.60
2023-04-24T14:26:47.011Z,0.53
2023-04-24T14:29:49.607Z,0.60
2023-04-24T14:32:51.542Z,0.90
2023-04-24T14:35:54.368Z,0.60
2023-04-24T14:38:56.269Z,0.67
2023-04-24T14:41:59.312Z,0.83
2023-04-24T14:45:01.280Z,0.70
2023-04-24T14:48:03.531Z,1.00
2023-04-24T14:51:05.648Z,0.70
2023-04-24T14:54:08.447Z,0.77
2023-04-24T14:57:11.266Z,0.90
2023-04-24T15:00:14.191Z,0.83
2023-04-24T15:03:19.165Z,0.90
2023-04-24T15:06:21.534Z,0.83
2023-04-24T15:09:25.205Z,0.90
2023-04-24T15:12:27.212Z,0.90
2023-04-24T15:15:29.101Z,1.17
2023-04-24T15:18:31.951Z,1.00
2023-04-24T15:21:33.844Z,1.20
2023-04-24T15:24:36.282Z,1.27
2023-04-24T15:27:45.232Z,1.00
2023-04-24T15:30:48.219Z,1.00
2023-04-24T15:33:53.006Z,1.10
2023-04-24T15:36:55.466Z,0.70
2023-04-24T15:39:57.404Z,0.93
2023-04-24T15:42:59.504Z,0.80
2023-04-24T15:46:02.731Z,1.10
2023-04-24T15:49:06.299Z,0.80
2023-04-24T15:52:10.974Z,1.07
2023-04-24T15:55:13.253Z,0.60
2023-04-24T15:58:15.170Z,0.90
2023-04-24T16:01:17.275Z,0.80
2023-04-24T16:04:19.415Z,0.60
2023-04-24T16:07:21.617Z,0.87
2023-04-24T16:10:23.462Z,0.80
2023-04-24T16:13:25.465Z,0.87
2023-04-24T16:16:28.319Z,1.20
2023-04-24T16:19:33.344Z,1.00
2023-04-24T16:22:35.586Z,0.90
2023-04-24T16:25:37.501Z,1.10
2023-04-24T16:28:40.675Z,1.03
2023-04-24T16:31:42.945Z,1.20
2023-04-24T16:34:45.221Z,1.10
2023-04-24T16:37:47.100Z,1.40
2023-04-24T16:40:48.990Z,1.00
2023-04-24T16:43:51.272Z,1.20
2023-04-24T16:46:54.271Z,1.30
2023-04-24T16:49:56.319Z,1.33
2023-04-24T16:52:58.254Z,1.93
2023-04-24T16:56:00.187Z,1.40
2023-04-24T16:59:02.261Z,1.23
2023-04-24T17:02:04.190Z,1.37
2023-04-24T17:05:06.974Z,1.90
2023-04-24T17:08:08.960Z,1.50
2023-04-24T17:11:10.970Z,1.53
2023-04-24T17:14:12.881Z,1.30
2023-04-24T17:17:15.761Z,1.00
2023-04-24T17:20:23.004Z,1.07
2023-04-24T17:23:27.223Z,1.33
2023-04-24T17:26:29.249Z,1.33
2023-04-24T17:29:32.108Z,1.03
2023-04-24T17:32:34.403Z,1.33
2023-04-24T17:35:36.446Z,1.17
2023-04-24T17:38:38.500Z,1.20
2023-04-24T17:41:40.867Z,0.97
2023-04-24T17:44:42.835Z,1.30
2023-04-24T17:47:45.186Z,1.27
2023-04-24T17:50:47.164Z,1.30
2023-04-24T17:53:49.200Z,1.13
2023-04-24T17:56:53.182Z,1.20
2023-04-24T17:59:55.236Z,2.33
2023-04-24T18:03:04.152Z,1.50
2023-04-24T18:06:06.837Z,1.43
2023-04-24T18:09:08.771Z,1.27
2023-04-24T18:12:11.585Z,2.40
2023-04-24T18:15:14.886Z,2.20
2023-04-24T18:18:18.426Z,2.00
2023-04-24T18:21:20.630Z,2.30
2023-04-24T18:24:22.818Z,2.40
2023-04-24T18:27:31.190Z,1.73
2023-04-24T18:30:35.455Z,1.63
2023-04-24T18:33:37.490Z,1.93
2023-04-24T18:36:39.411Z,1.37
2023-04-24T18:39:41.327Z,1.50
2023-04-24T18:42:44.914Z,1.50
2023-04-24T18:45:47.564Z,1.77
2023-04-24T18:48:49.889Z,1.63
2023-04-24T18:51:54.753Z,1.50
2023-04-24T18:54:56.883Z,2.13
2023-04-24T18:57:58.726Z,1.97
2023-04-24T19:01:00.840Z,2.33
2023-04-24T19:04:04.208Z,2.30
2023-04-24T19:07:06.178Z,1.60
2023-04-24T19:10:09.490Z,2.00
2023-04-24T19:13:11.417Z,1.93
2023-04-24T19:16:13.466Z,2.00
2023-04-24T19:19:15.582Z,1.50
2023-04-24T19:22:18.619Z,2.07
2023-04-24T19:25:20.631Z,1.63
2023-04-24T19:28:22.536Z,1.53
2023-04-24T19:31:28.095Z,1.60
2023-04-24T19:34:31.058Z,2.40
2023-04-24T19:37:35.096Z,2.77
2023-04-24T19:40:36.973Z,2.73
2023-04-24T19:43:40.320Z,2.50
2023-04-24T19:46:42.400Z,1.70
2023-04-24T19:49:44.715Z,2.33
2023-04-24T19:52:46.652Z,2.27
2023-04-24T19:55:50.872Z,1.90
2023-04-24T19:58:52.966Z,1.77
2023-04-24T20:01:55.520Z,1.77
2023-04-24T20:04:57.737Z,2.10
2023-04-24T20:08:00.200Z,1.53
2023-04-24T20:11:02.221Z,2.10
2023-04-24T20:14:04.260Z,2.00
2023-04-24T20:17:06.226Z,1.60
2023-04-24T20:20:09.820Z,1.40
2023-04-24T20:23:12.587Z,1.83
2023-04-24T20:26:14.585Z,1.83
2023-04-24T20:29:16.622Z,2.13
2023-04-24T20:32:18.637Z,2.00
2023-04-24T20:35:20.698Z,1.57
2023-04-24T20:38:23.161Z,1.40
2023-04-24T20:41:25.132Z,1.50
2023-04-24T20:44:27.143Z,1.03
2023-04-24T20:47:31.193Z,1.13
2023-04-24T20:50:34.962Z,1.07
2023-04-24T20:53:36.846Z,1.20
2023-04-24T20:56:38.927Z,1.20
2023-04-24T20:59:40.940Z,1.27
2023-04-24T21:02:43.090Z,1.30
2023-04-24T21:05:45.529Z,1.47
2023-04-24T21:08:47.463Z,0.90
2023-04-24T21:11:49.384Z,1.13
2023-04-24T21:14:51.532Z,1.43
2023-04-24T21:17:53.716Z,1.30
2023-04-24T21:20:57.380Z,1.63
2023-04-24T21:23:59.242Z,1.37
2023-04-24T21:27:01.877Z,0.80
2023-04-24T21:30:06.123Z,0.90
2023-04-24T21:33:08.245Z,1.00
2023-04-24T21:36:10.630Z,1.53
2023-04-24T21:39:13.043Z,2.80
2023-04-24T21:42:14.966Z,1.30
2023-04-24T21:45:17.191Z,1.73
2023-04-24T21:48:19.129Z,1.37
2023-04-24T21:51:21.139Z,1.30
2023-04-24T21:54:23.017Z,1.47
2023-04-24T21:57:24.977Z,1.10
2023-04-24T22:00:27.378Z,1.13
2023-04-24T22:03:31.132Z,1.00
2023-04-24T22:06:35.150Z,0.93
2023-04-24T22:09:37.272Z,1.00
2023-04-24T22:12:39.418Z,1.47
2023-04-24T22:15:41.408Z,2.20
2023-04-24T22:18:46.896Z,1.67
2023-04-24T22:21:51.027Z,1.93
2023-04-24T22:24:52.991Z,1.07
2023-04-24T22:27:54.915Z,1.10
2023-04-24T22:30:57.442Z,1.10
2023-04-24T22:33:59.492Z,2.00
2023-04-24T22:37:01.992Z,1.33
2023-04-24T22:40:05.568Z,2.00
2023-04-24T22:43:07.658Z,1.43
2023-04-24T22:46:09.667Z,1.10
2023-04-24T22:49:11.700Z,1.37
2023-04-24T22:52:15.621Z,1.60
2023-04-24T22:55:17.584Z,1.20
2023-04-24T22:58:19.573Z,1.30
2023-04-24T23:01:22.087Z,1.30
2023-04-24T23:04:24.331Z,1.03
2023-04-24T23:07:26.777Z,1.40
2023-04-24T23:10:28.873Z,1.23
2023-04-24T23:13:30.869Z,1.60
2023-04-24T23:16:32.967Z,1.63
2023-04-24T23:19:35.334Z,1.47
2023-04-24T23:22:37.278Z,1.50
2023-04-24T23:25:39.786Z,1.80
2023-04-24T23:28:42.243Z,2.93
2023-04-24T23:31:44.208Z,1.83
2023-04-24T23:34:46.464Z,1.20
2023-04-24T23:37:48.494Z,1.80
2023-04-24T23:40:52.324Z,1.20
2023-04-24T23:43:54.316Z,1.77
2023-04-24T23:46:57.955Z,1.17
2023-04-24T23:49:59.850Z,1.10
2023-04-24T23:53:01.982Z,1.30
2023-04-24T23:56:04.014Z,1.50
2023-04-24T23:59:06.106Z,1.10
